sensor_id;sensor_type;location;lat;lon;timestamp;pressure;altitude;pressure_sealevel;temperature;humidity
61408;BME280;47274;43.054;25.146;2023-02-26T00:01:33;94340.63;;;12.02;48.85
61408;BME280;47274;43.054;25.146;2023-02-26T00:04:02;94361.13;;;12.17;49.38
61408;BME280;47274;43.054;25.146;2023-02-26T00:06:31;94348.75;;;12.05;49.46
61408;BME280;47274;43.054;25.146;2023-02-26T00:08:57;94355.97;;;12.17;49.44
61408;BME280;47274;43.054;25.146;2023-02-26T00:11:23;94330.63;;;11.92;49.57
61408;BME280;47274;43.054;25.146;2023-02-26T00:13:50;94357.63;;;12.03;50.15
61408;BME280;47274;43.054;25.146;2023-02-26T00:16:31;94348.47;;;11.79;50.88
61408;BME280;47274;43.054;25.146;2023-02-26T00:19:01;94373.31;;;11.87;50.53
61408;BME280;47274;43.054;25.146;2023-02-26T00:21:28;94369.22;;;11.77;51.26
61408;BME280;47274;43.054;25.146;2023-02-26T00:23:55;94357.09;;;11.71;51.38
61408;BME280;47274;43.054;25.146;2023-02-26T00:26:22;94363.47;;;11.75;51.80
61408;BME280;47274;43.054;25.146;2023-02-26T00:28:49;94354.09;;;11.68;51.55
61408;BME280;47274;43.054;25.146;2023-02-26T00:31:16;94350.84;;;11.59;52.72
61408;BME280;47274;43.054;25.146;2023-02-26T00:33:43;94306.81;;;11.26;52.58
61408;BME280;47274;43.054;25.146;2023-02-26T00:39:06;94358.91;;;11.56;53.30
61408;BME280;47274;43.054;25.146;2023-02-26T00:41:38;94350.94;;;11.51;53.16
61408;BME280;47274;43.054;25.146;2023-02-26T00:44:04;94329.28;;;11.24;53.42
61408;BME280;47274;43.054;25.146;2023-02-26T00:47:04;94327.88;;;11.21;53.81
61408;BME280;47274;43.054;25.146;2023-02-26T00:52:26;94351.84;;;11.43;54.22
61408;BME280;47274;43.054;25.146;2023-02-26T00:54:53;94355.56;;;11.41;53.49
61408;BME280;47274;43.054;25.146;2023-02-26T00:57:19;94363.91;;;11.43;53.21
61408;BME280;47274;43.054;25.146;2023-02-26T00:59:45;94294.72;;;11.05;53.77
61408;BME280;47274;43.054;25.146;2023-02-26T01:02:11;94338.13;;;11.36;53.36
61408;BME280;47274;43.054;25.146;2023-02-26T01:04:38;94347.78;;;11.34;53.43
61408;BME280;47274;43.054;25.146;2023-02-26T01:07:04;94338.22;;;11.43;53.43
61408;BME280;47274;43.054;25.146;2023-02-26T01:09:34;94348.13;;;11.46;53.23
61408;BME280;47274;43.054;25.146;2023-02-26T01:12:05;94352.09;;;11.48;53.46
61408;BME280;47274;43.054;25.146;2023-02-26T01:14:32;94343.34;;;11.43;52.54
61408;BME280;47274;43.054;25.146;2023-02-26T01:17:42;94311.66;;;11.21;53.20
61408;BME280;47274;43.054;25.146;2023-02-26T01:20:05;94314.66;;;11.24;52.95
61408;BME280;47274;43.054;25.146;2023-02-26T01:22:56;94334.22;;;11.40;53.78
61408;BME280;47274;43.054;25.146;2023-02-26T01:25:40;94342.16;;;11.45;52.91
61408;BME280;47274;43.054;25.146;2023-02-26T01:28:08;94309.53;;;11.24;53.19
61408;BME280;47274;43.054;25.146;2023-02-26T01:30:35;94335.22;;;11.39;53.11
61408;BME280;47274;43.054;25.146;2023-02-26T01:33:10;94340.88;;;11.34;53.25
61408;BME280;47274;43.054;25.146;2023-02-26T01:35:47;94345.06;;;11.35;53.41
61408;BME280;47274;43.054;25.146;2023-02-26T01:38:26;94343.75;;;11.25;54.00
61408;BME280;47274;43.054;25.146;2023-02-26T01:43:55;94341.78;;;11.27;53.21
61408;BME280;47274;43.054;25.146;2023-02-26T01:46:55;94316.84;;;11.06;53.50
61408;BME280;47274;43.054;25.146;2023-02-26T01:49:24;94335.41;;;11.23;53.46
61408;BME280;47274;43.054;25.146;2023-02-26T01:54:21;94334.78;;;11.21;53.38
61408;BME280;47274;43.054;25.146;2023-02-26T01:56:50;94334.19;;;11.19;53.76
61408;BME280;47274;43.054;25.146;2023-02-26T01:59:19;94328.25;;;11.18;52.90
61408;BME280;47274;43.054;25.146;2023-02-26T02:01:53;94296.66;;;11.03;52.52
61408;BME280;47274;43.054;25.146;2023-02-26T02:04:23;94312.28;;;11.23;52.81
61408;BME280;47274;43.054;25.146;2023-02-26T02:06:49;94310.09;;;11.20;52.50
61408;BME280;47274;43.054;25.146;2023-02-26T02:09:15;94305.59;;;11.22;52.34
61408;BME280;47274;43.054;25.146;2023-02-26T02:14:40;94275.69;;;10.99;52.39
61408;BME280;47274;43.054;25.146;2023-02-26T02:26:05;94333.19;;;11.20;51.91
61408;BME280;47274;43.054;25.146;2023-02-26T02:29:05;94333.75;;;11.15;52.12
61408;BME280;47274;43.054;25.146;2023-02-26T02:31:51;94348.16;;;11.16;51.77
61408;BME280;47274;43.054;25.146;2023-02-26T02:34:23;94345.25;;;11.19;51.54
61408;BME280;47274;43.054;25.146;2023-02-26T02:39:50;94351.50;;;11.31;50.60
61408;BME280;47274;43.054;25.146;2023-02-26T02:45:28;94364.41;;;11.38;50.44
61408;BME280;47274;43.054;25.146;2023-02-26T02:48:01;94346.91;;;11.27;51.04
61408;BME280;47274;43.054;25.146;2023-02-26T02:50:34;94363.38;;;11.32;50.65
61408;BME280;47274;43.054;25.146;2023-02-26T02:56:04;94371.34;;;11.37;50.76
61408;BME280;47274;43.054;25.146;2023-02-26T02:58:42;94351.25;;;11.26;50.32
61408;BME280;47274;43.054;25.146;2023-02-26T03:01:13;94375.94;;;11.42;50.23
61408;BME280;47274;43.054;25.146;2023-02-26T03:06:42;94359.66;;;11.20;51.07
61408;BME280;47274;43.054;25.146;2023-02-26T03:09:11;94339.41;;;11.10;50.83
61408;BME280;47274;43.054;25.146;2023-02-26T03:11:39;94372.25;;;11.30;50.52
61408;BME280;47274;43.054;25.146;2023-02-26T03:14:06;94369.66;;;11.30;50.42
61408;BME280;47274;43.054;25.146;2023-02-26T03:20:02;94373.16;;;11.73;48.44
61408;BME280;47274;43.054;25.146;2023-02-26T03:28:26;94360.97;;;11.46;49.05
61408;BME280;47274;43.054;25.146;2023-02-26T03:34:12;94386.44;;;11.62;49.03
61408;BME280;47274;43.054;25.146;2023-02-26T03:36:45;94348.50;;;11.43;49.27
61408;BME280;47274;43.054;25.146;2023-02-26T03:39:37;94370.78;;;11.57;49.79
61408;BME280;47274;43.054;25.146;2023-02-26T03:42:20;94371.84;;;11.48;50.02
61408;BME280;47274;43.054;25.146;2023-02-26T03:45:16;94362.13;;;11.43;50.27
61408;BME280;47274;43.054;25.146;2023-02-26T03:47:49;94360.34;;;11.44;50.27
61408;BME280;47274;43.054;25.146;2023-02-26T03:50:28;94338.50;;;11.33;49.85
61408;BME280;47274;43.054;25.146;2023-02-26T03:53:30;94380.16;;;11.65;49.21
61408;BME280;47274;43.054;25.146;2023-02-26T03:56:12;94389.09;;;11.69;49.13
61408;BME280;47274;43.054;25.146;2023-02-26T03:59:03;94356.19;;;11.79;48.69
61408;BME280;47274;43.054;25.146;2023-02-26T04:02:03;94363.38;;;11.83;47.62
61408;BME280;47274;43.054;25.146;2023-02-26T04:04:37;94356.06;;;12.02;46.24
61408;BME280;47274;43.054;25.146;2023-02-26T04:07:12;94371.66;;;12.22;45.96
61408;BME280;47274;43.054;25.146;2023-02-26T04:09:41;94346.13;;;12.20;45.53
61408;BME280;47274;43.054;25.146;2023-02-26T04:12:07;94366.31;;;12.23;46.17
61408;BME280;47274;43.054;25.146;2023-02-26T04:14:36;94378.97;;;12.18;46.50
61408;BME280;47274;43.054;25.146;2023-02-26T04:17:02;94372.28;;;12.02;47.14
61408;BME280;47274;43.054;25.146;2023-02-26T04:19:28;94345.22;;;11.85;46.73
61408;BME280;47274;43.054;25.146;2023-02-26T04:21:54;94368.59;;;12.12;47.13
61408;BME280;47274;43.054;25.146;2023-02-26T04:24:20;94376.00;;;12.00;47.20
61408;BME280;47274;43.054;25.146;2023-02-26T04:26:47;94377.66;;;12.07;47.32
61408;BME280;47274;43.054;25.146;2023-02-26T04:29:13;94373.38;;;11.93;48.13
61408;BME280;47274;43.054;25.146;2023-02-26T04:31:42;94383.41;;;11.88;48.18
61408;BME280;47274;43.054;25.146;2023-02-26T04:34:09;94369.47;;;11.82;48.71
61408;BME280;47274;43.054;25.146;2023-02-26T04:36:35;94368.59;;;11.90;47.71
61408;BME280;47274;43.054;25.146;2023-02-26T04:39:01;94371.78;;;11.92;47.96
61408;BME280;47274;43.054;25.146;2023-02-26T04:41:28;94377.28;;;11.89;48.35
61408;BME280;47274;43.054;25.146;2023-02-26T04:43:54;94379.47;;;11.92;48.03
61408;BME280;47274;43.054;25.146;2023-02-26T04:46:29;94317.38;;;11.52;49.25
61408;BME280;47274;43.054;25.146;2023-02-26T04:48:55;94367.97;;;11.88;49.79
61408;BME280;47274;43.054;25.146;2023-02-26T04:51:21;94365.50;;;11.80;50.12
61408;BME280;47274;43.054;25.146;2023-02-26T04:53:49;94359.59;;;11.65;50.30
61408;BME280;47274;43.054;25.146;2023-02-26T04:56:15;94370.13;;;11.70;50.18
61408;BME280;47274;43.054;25.146;2023-02-26T04:58:41;94371.72;;;11.71;50.08
61408;BME280;47274;43.054;25.146;2023-02-26T05:01:13;94348.72;;;11.62;50.40
61408;BME280;47274;43.054;25.146;2023-02-26T05:03:39;94371.78;;;11.77;50.02
61408;BME280;47274;43.054;25.146;2023-02-26T05:06:05;94335.44;;;11.59;49.85
61408;BME280;47274;43.054;25.146;2023-02-26T05:08:31;94339.94;;;11.57;49.78
61408;BME280;47274;43.054;25.146;2023-02-26T05:10:57;94349.56;;;11.84;48.53
61408;BME280;47274;43.054;25.146;2023-02-26T05:13:23;94366.53;;;12.00;48.57
61408;BME280;47274;43.054;25.146;2023-02-26T05:15:49;94373.25;;;12.01;48.63
61408;BME280;47274;43.054;25.146;2023-02-26T05:18:16;94337.41;;;11.78;47.82
61408;BME280;47274;43.054;25.146;2023-02-26T05:20:41;94328.78;;;11.86;47.93
61408;BME280;47274;43.054;25.146;2023-02-26T05:23:08;94336.50;;;11.86;48.18
61408;BME280;47274;43.054;25.146;2023-02-26T05:25:34;94336.16;;;11.89;47.67
61408;BME280;47274;43.054;25.146;2023-02-26T05:28:00;94363.47;;;12.12;47.19
61408;BME280;47274;43.054;25.146;2023-02-26T05:30:27;94360.38;;;12.23;46.47
61408;BME280;47274;43.054;25.146;2023-02-26T05:32:55;94355.03;;;12.18;46.78
61408;BME280;47274;43.054;25.146;2023-02-26T05:35:20;94353.03;;;12.20;46.86
61408;BME280;47274;43.054;25.146;2023-02-26T05:37:47;94315.28;;;11.99;46.87
61408;BME280;47274;43.054;25.146;2023-02-26T05:40:13;94349.03;;;12.11;46.76
61408;BME280;47274;43.054;25.146;2023-02-26T05:42:39;94365.78;;;12.06;47.32
61408;BME280;47274;43.054;25.146;2023-02-26T05:45:07;94360.25;;;12.09;46.76
61408;BME280;47274;43.054;25.146;2023-02-26T05:47:34;94359.06;;;12.05;46.71
61408;BME280;47274;43.054;25.146;2023-02-26T05:50:00;94349.31;;;12.22;45.97
61408;BME280;47274;43.054;25.146;2023-02-26T05:52:26;94343.81;;;12.25;45.35
61408;BME280;47274;43.054;25.146;2023-02-26T05:54:52;94329.03;;;12.13;45.97
61408;BME280;47274;43.054;25.146;2023-02-26T05:57:19;94326.16;;;12.22;45.54
61408;BME280;47274;43.054;25.146;2023-02-26T05:59:45;94358.00;;;12.43;45.61
61408;BME280;47274;43.054;25.146;2023-02-26T06:02:11;94351.19;;;12.35;46.06
61408;BME280;47274;43.054;25.146;2023-02-26T06:04:38;94344.28;;;12.36;46.44
61408;BME280;47274;43.054;25.146;2023-02-26T06:07:04;94343.22;;;12.30;46.99
61408;BME280;47274;43.054;25.146;2023-02-26T06:09:30;94327.41;;;12.05;47.49
61408;BME280;47274;43.054;25.146;2023-02-26T06:11:56;94305.56;;;11.94;48.32
61408;BME280;47274;43.054;25.146;2023-02-26T06:14:22;94306.53;;;11.93;49.36
61408;BME280;47274;43.054;25.146;2023-02-26T06:16:48;94330.34;;;12.02;50.00
61408;BME280;47274;43.054;25.146;2023-02-26T06:19:14;94305.22;;;11.82;50.18
61408;BME280;47274;43.054;25.146;2023-02-26T06:21:40;94322.34;;;11.90;50.76
61408;BME280;47274;43.054;25.146;2023-02-26T06:24:06;94366.66;;;12.14;50.88
61408;BME280;47274;43.054;25.146;2023-02-26T06:26:32;94363.88;;;12.15;52.46
61408;BME280;47274;43.054;25.146;2023-02-26T06:28:58;94335.19;;;11.90;54.08
61408;BME280;47274;43.054;25.146;2023-02-26T06:31:24;94350.69;;;11.97;55.28
61408;BME280;47274;43.054;25.146;2023-02-26T06:33:51;94331.44;;;11.93;54.86
61408;BME280;47274;43.054;25.146;2023-02-26T06:36:18;94375.69;;;12.09;55.48
61408;BME280;47274;43.054;25.146;2023-02-26T06:38:44;94332.78;;;11.89;56.29
61408;BME280;47274;43.054;25.146;2023-02-26T06:41:10;94354.84;;;11.98;57.21
61408;BME280;47274;43.054;25.146;2023-02-26T06:43:36;94349.38;;;12.07;57.86
61408;BME280;47274;43.054;25.146;2023-02-26T06:46:02;94338.00;;;11.95;58.29
61408;BME280;47274;43.054;25.146;2023-02-26T06:48:28;94315.56;;;11.89;58.61
61408;BME280;47274;43.054;25.146;2023-02-26T06:50:56;94362.31;;;12.14;58.91
61408;BME280;47274;43.054;25.146;2023-02-26T06:53:22;94340.53;;;12.17;58.75
61408;BME280;47274;43.054;25.146;2023-02-26T06:55:50;94325.75;;;12.19;59.12
61408;BME280;47274;43.054;25.146;2023-02-26T06:58:18;94298.50;;;12.03;59.17
61408;BME280;47274;43.054;25.146;2023-02-26T07:00:45;94316.88;;;12.21;58.56
61408;BME280;47274;43.054;25.146;2023-02-26T07:03:13;94301.84;;;12.25;58.43
61408;BME280;47274;43.054;25.146;2023-02-26T07:05:39;94324.06;;;12.32;58.96
61408;BME280;47274;43.054;25.146;2023-02-26T07:08:06;94318.59;;;12.42;59.00
61408;BME280;47274;43.054;25.146;2023-02-26T07:10:33;94312.72;;;12.48;59.04
61408;BME280;47274;43.054;25.146;2023-02-26T07:13:00;94324.59;;;12.49;58.84
61408;BME280;47274;43.054;25.146;2023-02-26T07:15:26;94314.72;;;12.53;58.59
61408;BME280;47274;43.054;25.146;2023-02-26T07:17:52;94343.88;;;12.60;57.29
61408;BME280;47274;43.054;25.146;2023-02-26T07:20:20;94319.72;;;12.61;57.24
61408;BME280;47274;43.054;25.146;2023-02-26T07:22:48;94268.19;;;12.48;56.50
61408;BME280;47274;43.054;25.146;2023-02-26T07:25:14;94265.63;;;12.54;56.07
61408;BME280;47274;43.054;25.146;2023-02-26T07:27:40;94317.78;;;12.70;56.94
61408;BME280;47274;43.054;25.146;2023-02-26T07:30:08;94290.59;;;12.61;56.53
61408;BME280;47274;43.054;25.146;2023-02-26T07:32:36;94303.38;;;12.75;56.61
61408;BME280;47274;43.054;25.146;2023-02-26T07:35:02;94304.19;;;12.76;57.38
61408;BME280;47274;43.054;25.146;2023-02-26T07:37:30;94303.69;;;12.59;57.60
61408;BME280;47274;43.054;25.146;2023-02-26T07:39:56;94317.56;;;12.65;57.78
61408;BME280;47274;43.054;25.146;2023-02-26T07:42:22;94343.00;;;12.81;58.68
61408;BME280;47274;43.054;25.146;2023-02-26T07:44:51;94312.38;;;12.58;59.49
61408;BME280;47274;43.054;25.146;2023-02-26T07:47:17;94300.63;;;12.49;59.76
61408;BME280;47274;43.054;25.146;2023-02-26T07:49:43;94323.97;;;12.75;59.38
61408;BME280;47274;43.054;25.146;2023-02-26T07:52:11;94331.03;;;12.67;61.09
61408;BME280;47274;43.054;25.146;2023-02-26T07:54:37;94303.84;;;12.57;60.75
61408;BME280;47274;43.054;25.146;2023-02-26T07:57:04;94283.09;;;12.59;60.98
61408;BME280;47274;43.054;25.146;2023-02-26T07:59:30;94270.69;;;12.69;60.71
61408;BME280;47274;43.054;25.146;2023-02-26T08:01:56;94276.56;;;12.63;60.69
61408;BME280;47274;43.054;25.146;2023-02-26T08:04:22;94297.88;;;12.85;59.05
61408;BME280;47274;43.054;25.146;2023-02-26T08:06:48;94271.16;;;12.86;58.20
61408;BME280;47274;43.054;25.146;2023-02-26T08:09:16;94261.91;;;13.05;56.67
61408;BME280;47274;43.054;25.146;2023-02-26T08:11:46;94277.16;;;13.41;55.32
61408;BME280;47274;43.054;25.146;2023-02-26T08:14:15;94284.16;;;13.61;54.43
61408;BME280;47274;43.054;25.146;2023-02-26T08:16:44;94262.94;;;13.72;54.46
61408;BME280;47274;43.054;25.146;2023-02-26T08:19:12;94260.53;;;13.77;53.94
61408;BME280;47274;43.054;25.146;2023-02-26T08:21:40;94270.09;;;13.90;52.47
61408;BME280;47274;43.054;25.146;2023-02-26T08:24:07;94263.13;;;13.90;53.13
61408;BME280;47274;43.054;25.146;2023-02-26T08:26:35;94257.81;;;13.98;51.06
61408;BME280;47274;43.054;25.146;2023-02-26T08:29:02;94263.38;;;14.15;48.64
61408;BME280;47274;43.054;25.146;2023-02-26T08:31:29;94283.41;;;14.33;47.24
61408;BME280;47274;43.054;25.146;2023-02-26T08:33:57;94240.72;;;14.24;46.58
61408;BME280;47274;43.054;25.146;2023-02-26T08:36:23;94250.03;;;14.65;46.74
61408;BME280;47274;43.054;25.146;2023-02-26T08:38:50;94274.63;;;14.74;46.00
61408;BME280;47274;43.054;25.146;2023-02-26T08:41:16;94285.00;;;14.61;44.51
61408;BME280;47274;43.054;25.146;2023-02-26T08:43:43;94266.66;;;14.82;44.85
61408;BME280;47274;43.054;25.146;2023-02-26T08:46:10;94292.59;;;15.14;45.11
61408;BME280;47274;43.054;25.146;2023-02-26T08:48:37;94284.25;;;15.19;44.44
61408;BME280;47274;43.054;25.146;2023-02-26T08:51:03;94301.44;;;15.38;44.70
61408;BME280;47274;43.054;25.146;2023-02-26T08:53:32;94233.03;;;15.40;44.09
61408;BME280;47274;43.054;25.146;2023-02-26T08:55:58;94233.63;;;15.04;43.91
61408;BME280;47274;43.054;25.146;2023-02-26T08:58:26;94244.94;;;14.97;45.12
61408;BME280;47274;43.054;25.146;2023-02-26T09:00:52;94250.41;;;15.27;45.08
61408;BME280;47274;43.054;25.146;2023-02-26T09:03:19;94262.66;;;15.38;44.67
61408;BME280;47274;43.054;25.146;2023-02-26T09:05:45;94287.91;;;15.43;44.98
61408;BME280;47274;43.054;25.146;2023-02-26T09:08:13;94296.56;;;15.16;45.38
61408;BME280;47274;43.054;25.146;2023-02-26T09:10:42;94306.63;;;15.31;45.31
61408;BME280;47274;43.054;25.146;2023-02-26T09:13:10;94300.69;;;15.24;45.17
61408;BME280;47274;43.054;25.146;2023-02-26T09:15:36;94293.41;;;15.14;46.93
61408;BME280;47274;43.054;25.146;2023-02-26T09:18:02;94324.06;;;15.56;46.42
61408;BME280;47274;43.054;25.146;2023-02-26T09:20:28;94272.59;;;15.79;45.65
61408;BME280;47274;43.054;25.146;2023-02-26T09:22:55;94310.94;;;15.51;46.23
61408;BME280;47274;43.054;25.146;2023-02-26T09:25:21;94277.41;;;15.31;47.04
61408;BME280;47274;43.054;25.146;2023-02-26T09:27:48;94257.16;;;15.28;48.50
61408;BME280;47274;43.054;25.146;2023-02-26T09:30:15;94262.53;;;15.26;47.93
61408;BME280;47274;43.054;25.146;2023-02-26T09:32:41;94331.81;;;15.56;48.26
61408;BME280;47274;43.054;25.146;2023-02-26T09:35:07;94307.03;;;15.80;48.07
61408;BME280;47274;43.054;25.146;2023-02-26T09:37:36;94302.69;;;16.05;47.22
61408;BME280;47274;43.054;25.146;2023-02-26T09:40:02;94296.63;;;16.43;46.64
61408;BME280;47274;43.054;25.146;2023-02-26T09:45:37;94304.53;;;15.98;47.87
61408;BME280;47274;43.054;25.146;2023-02-26T09:48:06;94355.09;;;16.26;47.87
61408;BME280;47274;43.054;25.146;2023-02-26T09:50:42;94337.50;;;16.09;48.51
61408;BME280;47274;43.054;25.146;2023-02-26T09:55:55;94343.13;;;16.00;48.75
61408;BME280;47274;43.054;25.146;2023-02-26T09:58:31;94347.81;;;15.84;47.84
61408;BME280;47274;43.054;25.146;2023-02-26T10:01:09;94348.84;;;16.08;47.94
61408;BME280;47274;43.054;25.146;2023-02-26T10:03:45;94352.50;;;16.01;47.40
61408;BME280;47274;43.054;25.146;2023-02-26T10:06:37;94353.28;;;15.56;49.54
61408;BME280;47274;43.054;25.146;2023-02-26T10:12:15;94353.31;;;15.95;49.28
61408;BME280;47274;43.054;25.146;2023-02-26T10:14:57;94335.03;;;16.21;49.26
61408;BME280;47274;43.054;25.146;2023-02-26T10:25:47;94339.97;;;15.53;49.76
61408;BME280;47274;43.054;25.146;2023-02-26T10:28:43;94301.09;;;15.21;49.74
61408;BME280;47274;43.054;25.146;2023-02-26T10:31:26;94306.00;;;15.43;48.67
61408;BME280;47274;43.054;25.146;2023-02-26T10:36:56;94288.72;;;15.81;49.16
61408;BME280;47274;43.054;25.146;2023-02-26T10:42:26;94295.72;;;16.81;45.72
61408;BME280;47274;43.054;25.146;2023-02-26T10:50:55;94273.03;;;16.95;45.15
61408;BME280;47274;43.054;25.146;2023-02-26T10:53:23;94298.94;;;16.76;44.75
61408;BME280;47274;43.054;25.146;2023-02-26T10:55:55;94324.50;;;17.46;44.78
61408;BME280;47274;43.054;25.146;2023-02-26T10:58:25;94298.97;;;17.13;44.90
61408;BME280;47274;43.054;25.146;2023-02-26T11:00:53;94309.13;;;17.15;44.80
61408;BME280;47274;43.054;25.146;2023-02-26T11:03:30;94329.78;;;17.21;44.89
61408;BME280;47274;43.054;25.146;2023-02-26T11:05:58;94319.25;;;17.35;43.43
61408;BME280;47274;43.054;25.146;2023-02-26T11:08:38;94297.09;;;17.02;44.20
61408;BME280;47274;43.054;25.146;2023-02-26T11:11:06;94292.09;;;17.67;44.07
61408;BME280;47274;43.054;25.146;2023-02-26T11:13:35;94335.53;;;17.05;44.27
61408;BME280;47274;43.054;25.146;2023-02-26T11:16:05;94310.13;;;17.32;44.15
61408;BME280;47274;43.054;25.146;2023-02-26T11:18:47;94278.66;;;17.59;43.84
61408;BME280;47274;43.054;25.146;2023-02-26T11:21:20;94302.38;;;17.62;43.27
61408;BME280;47274;43.054;25.146;2023-02-26T11:23:51;94314.06;;;17.35;44.14
61408;BME280;47274;43.054;25.146;2023-02-26T11:26:26;94326.78;;;17.73;43.55
61408;BME280;47274;43.054;25.146;2023-02-26T11:28:57;94326.72;;;17.80;44.13
61408;BME280;47274;43.054;25.146;2023-02-26T11:31:25;94311.16;;;17.61;43.13
61408;BME280;47274;43.054;25.146;2023-02-26T11:33:53;94314.53;;;17.13;45.25
61408;BME280;47274;43.054;25.146;2023-02-26T11:36:25;94287.06;;;17.42;44.70
61408;BME280;47274;43.054;25.146;2023-02-26T11:39:20;94280.00;;;17.31;44.39
61408;BME280;47274;43.054;25.146;2023-02-26T11:41:48;94233.38;;;17.43;44.24
61408;BME280;47274;43.054;25.146;2023-02-26T11:44:18;94233.63;;;17.23;44.82
61408;BME280;47274;43.054;25.146;2023-02-26T11:46:50;94252.53;;;16.93;44.55
61408;BME280;47274;43.054;25.146;2023-02-26T11:49:21;94275.03;;;16.74;45.12
61408;BME280;47274;43.054;25.146;2023-02-26T11:52:05;94280.06;;;16.44;45.96
61408;BME280;47274;43.054;25.146;2023-02-26T11:54:41;94252.00;;;16.23;46.83
61408;BME280;47274;43.054;25.146;2023-02-26T11:57:37;94263.22;;;16.10;46.52
61408;BME280;47274;43.054;25.146;2023-02-26T12:00:22;94263.03;;;15.86;47.29
61408;BME280;47274;43.054;25.146;2023-02-26T12:02:50;94308.38;;;16.21;47.56
61408;BME280;47274;43.054;25.146;2023-02-26T12:05:21;94304.13;;;16.26;47.42
61408;BME280;47274;43.054;25.146;2023-02-26T12:07:47;94322.09;;;16.46;47.22
61408;BME280;47274;43.054;25.146;2023-02-26T12:10:25;94269.69;;;16.26;47.02
61408;BME280;47274;43.054;25.146;2023-02-26T12:13:06;94259.31;;;16.51;45.13
61408;BME280;47274;43.054;25.146;2023-02-26T12:19:17;94250.78;;;16.69;44.59
61408;BME280;47274;43.054;25.146;2023-02-26T12:33:26;94311.84;;;15.76;48.17
61408;BME280;47274;43.054;25.146;2023-02-26T12:47:10;94274.34;;;15.09;49.75
61408;BME280;47274;43.054;25.146;2023-02-26T13:04:48;94320.25;;;14.93;50.85
61408;BME280;47274;43.054;25.146;2023-02-26T13:13:33;94290.94;;;14.61;51.89
61408;BME280;47274;43.054;25.146;2023-02-26T13:16:31;94295.88;;;14.76;52.08
61408;BME280;47274;43.054;25.146;2023-02-26T13:19:02;94344.75;;;14.84;52.48
61408;BME280;47274;43.054;25.146;2023-02-26T13:22:02;94326.84;;;14.76;52.29
61408;BME280;47274;43.054;25.146;2023-02-26T13:24:35;94348.91;;;14.79;52.26
61408;BME280;47274;43.054;25.146;2023-02-26T13:27:04;94359.25;;;14.72;52.10
61408;BME280;47274;43.054;25.146;2023-02-26T13:29:39;94315.59;;;14.51;52.05
61408;BME280;47274;43.054;25.146;2023-02-26T13:32:25;94327.25;;;14.73;51.74
61408;BME280;47274;43.054;25.146;2023-02-26T13:34:58;94361.22;;;14.90;51.31
61408;BME280;47274;43.054;25.146;2023-02-26T13:37:40;94406.28;;;15.01;50.36
61408;BME280;47274;43.054;25.146;2023-02-26T13:43:20;94325.88;;;14.77;50.96
61408;BME280;47274;43.054;25.146;2023-02-26T13:49:17;94378.50;;;14.89;50.75
61408;BME280;47274;43.054;25.146;2023-02-26T13:51:47;94333.44;;;14.65;50.75
61408;BME280;47274;43.054;25.146;2023-02-26T13:57:08;94388.66;;;14.71;51.48
61408;BME280;47274;43.054;25.146;2023-02-26T13:59:54;94345.38;;;14.60;51.32
61408;BME280;47274;43.054;25.146;2023-02-26T14:08:38;94349.69;;;14.46;52.48
61408;BME280;47274;43.054;25.146;2023-02-26T14:11:45;94270.69;;;13.79;52.57
61408;BME280;47274;43.054;25.146;2023-02-26T14:24:35;94359.78;;;14.14;53.52
61408;BME280;47274;43.054;25.146;2023-02-26T14:29:41;94330.84;;;14.19;53.12
61408;BME280;47274;43.054;25.146;2023-02-26T14:32:14;94312.97;;;14.17;53.27
61408;BME280;47274;43.054;25.146;2023-02-26T14:34:53;94280.00;;;13.80;53.31
61408;BME280;47274;43.054;25.146;2023-02-26T14:37:26;94339.53;;;14.11;53.22
61408;BME280;47274;43.054;25.146;2023-02-26T14:40:15;94301.84;;;14.17;53.49
61408;BME280;47274;43.054;25.146;2023-02-26T14:42:58;94313.97;;;14.10;53.70
61408;BME280;47274;43.054;25.146;2023-02-26T14:45:35;94303.25;;;14.13;54.03
61408;BME280;47274;43.054;25.146;2023-02-26T14:48:10;94334.75;;;14.02;53.68
61408;BME280;47274;43.054;25.146;2023-02-26T14:59:23;94349.03;;;13.91;54.38
61408;BME280;47274;43.054;25.146;2023-02-26T15:08:28;94432.72;;;13.75;55.21
61408;BME280;47274;43.054;25.146;2023-02-26T15:14:27;94419.56;;;13.63;55.26
61408;BME280;47274;43.054;25.146;2023-02-26T15:19:53;94446.69;;;13.52;56.13
61408;BME280;47274;43.054;25.146;2023-02-26T15:25:44;94431.91;;;13.33;56.62
61408;BME280;47274;43.054;25.146;2023-02-26T15:30:50;94419.63;;;13.07;56.66
61408;BME280;47274;43.054;25.146;2023-02-26T15:33:18;94466.16;;;13.27;56.80
61408;BME280;47274;43.054;25.146;2023-02-26T15:35:48;94467.47;;;13.23;56.84
61408;BME280;47274;43.054;25.146;2023-02-26T15:38:17;94440.81;;;13.02;56.14
61408;BME280;47274;43.054;25.146;2023-02-26T15:40:44;94479.94;;;13.19;56.70
61408;BME280;47274;43.054;25.146;2023-02-26T15:43:22;94474.88;;;13.04;56.94
61408;BME280;47274;43.054;25.146;2023-02-26T15:45:56;94476.91;;;13.09;56.95
61408;BME280;47274;43.054;25.146;2023-02-26T15:48:30;94461.22;;;12.76;57.18
61408;BME280;47274;43.054;25.146;2023-02-26T15:51:01;94485.38;;;13.03;56.77
61408;BME280;47274;43.054;25.146;2023-02-26T15:53:30;94487.16;;;13.02;57.22
61408;BME280;47274;43.054;25.146;2023-02-26T15:56:00;94482.34;;;12.93;56.86
61408;BME280;47274;43.054;25.146;2023-02-26T15:58:42;94456.22;;;12.74;56.70
61408;BME280;47274;43.054;25.146;2023-02-26T16:01:15;94488.03;;;12.88;57.06
61408;BME280;47274;43.054;25.146;2023-02-26T16:03:42;94466.72;;;12.73;56.80
61408;BME280;47274;43.054;25.146;2023-02-26T16:06:29;94518.34;;;12.86;56.94
61408;BME280;47274;43.054;25.146;2023-02-26T16:08:56;94520.06;;;12.79;57.33
61408;BME280;47274;43.054;25.146;2023-02-26T16:11:30;94538.25;;;12.77;57.82